Time;durP1;ratioP1;P1;durP2;ratioP2;P2;SDS_P1;SDS_P2;PMS_P1;PMS_P2;Temp;Humidity;BMP_temperature;BMP_pressure;BME280_temperature;BME280_humidity;BME280_pressure;Samples;Min_cycle;Max_cycle;Signal;HPM_P1;HPM_P2
2023/04/01 00:00:47;;;;;;;6.97;6.35;;;8.80;99.90;;;;;;5049633;28;20280;-78
2023/04/01 00:03:14;;;;;;;6.60;6.10;;;8.80;99.90;;;;;;5043693;28;20302;-79
2023/04/01 00:05:41;;;;;;;7.00;6.30;;;8.80;99.90;;;;;;5043380;28;20247;-78
2023/04/01 00:08:08;;;;;;;6.15;5.65;;;8.80;99.90;;;;;;5045352;28;20669;-78
2023/04/01 00:10:36;;;;;;;6.28;5.35;;;8.70;99.90;;;;;;5044032;28;20242;-79
2023/04/01 00:13:04;;;;;;;5.60;5.10;;;8.70;99.90;;;;;;5040411;28;20235;-79
2023/04/01 00:15:31;;;;;;;5.20;4.80;;;8.70;99.90;;;;;;5038209;28;20200;-78
2023/04/01 00:17:58;;;;;;;6.60;5.90;;;8.70;99.90;;;;;;5043089;28;20203;-78
2023/04/01 00:20:25;;;;;;;7.03;6.32;;;8.70;99.90;;;;;;5046456;28;20218;-77
2023/04/01 00:22:52;;;;;;;5.65;5.15;;;8.70;99.90;;;;;;5045667;28;20252;-76
2023/04/01 00:25:19;;;;;;;5.85;5.35;;;8.70;99.90;;;;;;5041596;28;20697;-76
2023/04/01 00:27:49;;;;;;;5.68;5.28;;;8.60;99.90;;;;;;5041422;28;20195;-79
2023/04/01 00:30:16;;;;;;;6.82;6.13;;;8.60;99.90;;;;;;5043575;28;20235;-79
2023/04/01 00:32:44;;;;;;;5.57;5.18;;;8.50;99.90;;;;;;5043842;28;20199;-79
2023/04/01 00:35:12;;;;;;;5.47;5.07;;;8.50;99.90;;;;;;5044546;28;20272;-78
2023/04/01 00:37:40;;;;;;;6.03;5.63;;;8.40;99.90;;;;;;5048697;28;20221;-79
2023/04/01 00:40:09;;;;;;;5.80;5.30;;;8.40;99.90;;;;;;5055747;28;20231;-77
2023/04/01 00:42:36;;;;;;;5.75;5.35;;;8.50;99.90;;;;;;5039822;28;20200;-75
2023/04/01 00:45:30;;;;;;;5.68;5.28;;;8.50;99.90;;;;;;5042355;28;20249;-76
2023/04/01 00:48:00;;;;;;;4.85;4.45;;;8.40;99.90;;;;;;5043518;28;20243;-77
2023/04/01 00:50:29;;;;;;;5.45;5.05;;;8.40;99.90;;;;;;5042556;28;20788;-76
2023/04/01 00:52:56;;;;;;;4.53;4.13;;;8.40;99.90;;;;;;5042135;28;20207;-76
2023/04/01 00:55:25;;;;;;;4.68;4.35;;;8.30;99.90;;;;;;5045959;28;20249;-76
2023/04/01 00:57:54;;;;;;;4.53;4.13;;;8.10;99.90;;;;;;5040337;28;20234;-76
2023/04/01 01:00:21;;;;;;;5.82;5.32;;;8.00;99.90;;;;;;5040854;28;20679;-77
2023/04/01 01:02:51;;;;;;;4.38;4.07;;;7.90;99.90;;;;;;5037582;28;20238;-77
2023/04/01 01:05:24;;;;;;;4.93;4.53;;;7.80;99.90;;;;;;5041637;28;20694;-75
2023/04/01 01:08:01;;;;;;;4.50;4.20;;;7.80;99.90;;;;;;5043900;28;20226;-77
2023/04/01 01:10:32;;;;;;;4.95;4.55;;;7.80;99.90;;;;;;5036549;28;20247;-77
2023/04/01 01:13:09;;;;;;;4.60;4.30;;;7.80;99.90;;;;;;5041826;28;20195;-77
2023/04/01 01:15:44;;;;;;;5.22;4.90;;;7.90;99.90;;;;;;5040151;28;20230;-77
2023/04/01 01:18:20;;;;;;;6.78;6.18;;;8.00;99.90;;;;;;5042757;28;20194;-77
2023/04/01 01:21:08;;;;;;;6.72;6.13;;;7.90;99.90;;;;;;5042889;28;20206;-76
2023/04/01 01:24:03;;;;;;;7.07;6.47;;;7.90;99.90;;;;;;5056399;28;20203;-77
2023/04/01 01:26:50;;;;;;;5.90;5.40;;;7.90;99.90;;;;;;5055416;28;20312;-76
2023/04/01 01:29:56;;;;;;;5.63;5.13;;;7.80;99.90;;;;;;5042117;28;20210;-77
2023/04/01 01:32:55;;;;;;;4.82;4.53;;;7.70;99.90;;;;;;5038651;28;20624;-77
2023/04/01 01:35:28;;;;;;;5.22;4.82;;;7.70;99.90;;;;;;5041893;28;20207;-76
2023/04/01 01:38:00;;;;;;;5.13;4.72;;;7.70;99.90;;;;;;5057865;28;20210;-79
2023/04/01 01:40:29;;;;;;;5.03;4.65;;;7.60;99.90;;;;;;5042793;28;20257;-76
2023/04/01 01:43:00;;;;;;;5.38;4.88;;;7.60;99.90;;;;;;5046627;28;20199;-77
2023/04/01 01:45:29;;;;;;;5.57;5.05;;;7.50;99.90;;;;;;5042839;28;20222;-76
2023/04/01 01:47:58;;;;;;;6.18;5.68;;;7.50;99.90;;;;;;5038537;28;20217;-77
2023/04/01 01:50:27;;;;;;;6.03;5.53;;;7.50;99.90;;;;;;5045531;28;20226;-77
2023/04/01 01:53:02;;;;;;;5.15;4.75;;;7.50;99.90;;;;;;5040668;28;20206;-77
2023/04/01 01:55:33;;;;;;;5.20;4.80;;;7.50;99.90;;;;;;5040564;28;20674;-77
2023/04/01 01:58:02;;;;;;;4.50;4.20;;;7.50;99.90;;;;;;5039393;28;20347;-77
2023/04/01 02:00:29;;;;;;;4.88;4.47;;;7.40;99.90;;;;;;5040359;28;20296;-77
2023/04/01 02:02:58;;;;;;;5.07;4.68;;;7.50;99.90;;;;;;5037670;28;20260;-76
2023/04/01 02:05:30;;;;;;;5.30;4.90;;;7.50;99.90;;;;;;5041633;28;20288;-77
2023/04/01 02:08:03;;;;;;;4.85;4.45;;;7.50;99.90;;;;;;5039926;28;20199;-77
2023/04/01 02:10:35;;;;;;;5.03;4.70;;;7.60;99.90;;;;;;5042562;28;20272;-76
2023/04/01 02:13:08;;;;;;;5.35;4.95;;;7.50;99.90;;;;;;5041418;28;20682;-78
2023/04/01 02:15:42;;;;;;;5.18;4.78;;;7.50;99.90;;;;;;5042914;28;20187;-80
2023/04/01 02:18:10;;;;;;;5.05;4.68;;;7.60;99.90;;;;;;5043354;28;20290;-76
2023/04/01 02:20:39;;;;;;;5.68;5.25;;;7.60;99.90;;;;;;5042172;28;20226;-77
2023/04/01 02:23:10;;;;;;;5.07;4.68;;;7.60;99.90;;;;;;5044038;28;20206;-77
2023/04/01 02:25:39;;;;;;;4.72;4.40;;;7.60;99.90;;;;;;5047738;28;20214;-77
2023/04/01 02:28:08;;;;;;;5.10;4.60;;;7.70;99.90;;;;;;5048362;28;20275;-77
2023/04/01 02:30:37;;;;;;;5.18;4.78;;;7.70;99.90;;;;;;5047845;28;20222;-77
2023/04/01 02:33:06;;;;;;;5.47;4.97;;;7.70;99.90;;;;;;5043214;28;20626;-76
2023/04/01 02:35:36;;;;;;;5.18;4.78;;;7.70;99.90;;;;;;5052168;28;20191;-78
2023/04/01 02:38:05;;;;;;;5.13;4.72;;;7.70;99.90;;;;;;5043211;28;20656;-76
2023/04/01 02:40:47;;;;;;;4.97;4.57;;;7.70;99.90;;;;;;5043339;28;21169;-80
2023/04/01 02:43:14;;;;;;;4.95;4.55;;;7.70;99.90;;;;;;5039654;28;20256;-77
2023/04/01 02:45:41;;;;;;;5.05;4.70;;;7.70;99.90;;;;;;5037911;28;20219;-77
2023/04/01 02:48:08;;;;;;;5.82;5.43;;;7.70;99.90;;;;;;5040820;28;20207;-80
2023/04/01 02:50:35;;;;;;;6.05;5.45;;;7.70;99.90;;;;;;5042347;28;20603;-79
2023/04/01 02:53:06;;;;;;;4.85;4.45;;;7.60;99.90;;;;;;5036955;28;20199;-76
2023/04/01 02:55:33;;;;;;;5.43;5.00;;;7.60;99.90;;;;;;5044594;28;20273;-78
2023/04/01 02:58:00;;;;;;;5.20;4.80;;;7.60;99.90;;;;;;5038773;28;20226;-77
2023/04/01 03:00:27;;;;;;;5.90;5.40;;;7.60;99.90;;;;;;5041068;28;20227;-76
2023/04/01 03:02:54;;;;;;;5.10;4.80;;;7.60;99.90;;;;;;5036762;28;20203;-77
2023/04/01 03:05:21;;;;;;;5.47;5.07;;;7.60;99.90;;;;;;5041176;28;20203;-78
2023/04/01 03:07:48;;;;;;;4.88;4.50;;;7.50;99.90;;;;;;5041104;28;20258;-77
2023/04/01 03:10:17;;;;;;;4.95;4.55;;;7.50;99.90;;;;;;5041844;28;20254;-76
2023/04/01 03:12:44;;;;;;;5.10;4.70;;;7.50;99.90;;;;;;5042365;28;20199;-76
2023/04/01 03:15:14;;;;;;;5.05;4.60;;;7.50;99.90;;;;;;5043482;28;20210;-76
2023/04/01 03:17:41;;;;;;;4.65;4.35;;;7.50;99.90;;;;;;5044403;28;20215;-76
2023/04/01 03:20:10;;;;;;;5.00;4.60;;;7.50;99.90;;;;;;5046251;28;20254;-76
2023/04/01 03:22:38;;;;;;;4.90;4.50;;;7.60;99.90;;;;;;5042893;28;20253;-78
2023/04/01 03:25:07;;;;;;;4.75;4.35;;;7.50;99.90;;;;;;5041523;28;20207;-77
2023/04/01 03:27:35;;;;;;;4.82;4.53;;;7.50;99.90;;;;;;5043977;28;20223;-78
2023/04/01 03:30:03;;;;;;;5.10;4.70;;;7.50;99.90;;;;;;5046437;28;20220;-78
2023/04/01 03:32:30;;;;;;;4.43;4.13;;;7.50;99.90;;;;;;5041848;28;20238;-75
2023/04/01 03:34:57;;;;;;;4.80;4.50;;;7.50;99.90;;;;;;5058524;28;20209;-75
2023/04/01 03:37:25;;;;;;;4.40;4.10;;;7.50;99.90;;;;;;5043946;28;20195;-76
2023/04/01 03:39:52;;;;;;;4.70;4.32;;;7.50;99.90;;;;;;5044277;28;20258;-76
2023/04/01 03:42:19;;;;;;;4.25;3.95;;;7.50;99.90;;;;;;5043059;28;20256;-77
2023/04/01 03:44:47;;;;;;;4.72;4.32;;;7.50;99.90;;;;;;5041916;28;20204;-76
2023/04/01 03:47:14;;;;;;;4.70;4.40;;;7.50;99.90;;;;;;5043232;28;20250;-75
2023/04/01 03:49:41;;;;;;;4.78;4.38;;;7.50;99.90;;;;;;5044682;28;20733;-76
2023/04/01 03:52:11;;;;;;;4.93;4.53;;;7.40;99.90;;;;;;5042352;28;20250;-76
2023/04/01 03:54:38;;;;;;;5.15;4.75;;;7.40;99.90;;;;;;5046689;28;20195;-77
2023/04/01 03:57:05;;;;;;;5.05;4.65;;;7.30;99.90;;;;;;5043223;28;20199;-76
2023/04/01 03:59:35;;;;;;;4.85;4.45;;;7.30;99.90;;;;;;5041830;28;20264;-76
2023/04/01 04:02:04;;;;;;;5.07;4.68;;;7.30;99.90;;;;;;5043577;28;20264;-76
2023/04/01 04:04:31;;;;;;;4.88;4.47;;;7.20;99.90;;;;;;5048153;28;20199;-77
2023/04/01 04:06:59;;;;;;;5.43;5.03;;;7.10;99.90;;;;;;5060512;28;20215;-77
2023/04/01 04:09:26;;;;;;;5.43;5.03;;;7.10;99.90;;;;;;5058109;28;20211;-78
2023/04/01 04:11:53;;;;;;;4.97;4.57;;;7.10;99.90;;;;;;5047732;28;20220;-76
2023/04/01 04:14:20;;;;;;;4.97;4.57;;;7.10;99.90;;;;;;5039281;28;20206;-76
2023/04/01 04:16:47;;;;;;;5.25;4.85;;;7.20;99.90;;;;;;5041088;28;20297;-76
2023/04/01 04:19:16;;;;;;;5.22;4.82;;;7.20;99.90;;;;;;5044559;28;20668;-77
2023/04/01 04:21:43;;;;;;;4.82;4.43;;;7.20;99.90;;;;;;5042604;28;20308;-78
2023/04/01 04:24:10;;;;;;;5.00;4.68;;;7.10;99.90;;;;;;5045057;28;20198;-76
2023/04/01 04:26:38;;;;;;;4.97;4.63;;;7.10;99.90;;;;;;5041530;28;20261;-78
2023/04/01 04:29:05;;;;;;;5.03;4.63;;;7.10;99.90;;;;;;5043373;28;20831;-77
2023/04/01 04:31:32;;;;;;;5.30;4.90;;;7.10;99.90;;;;;;5046935;28;20211;-79
2023/04/01 04:34:00;;;;;;;4.95;4.55;;;7.10;99.90;;;;;;5057075;28;20210;-77
2023/04/01 04:36:29;;;;;;;4.80;4.50;;;7.10;99.90;;;;;;5040888;28;20226;-78
2023/04/01 04:38:57;;;;;;;5.60;5.10;;;7.00;99.90;;;;;;5046080;28;20203;-76
2023/04/01 04:41:25;;;;;;;4.57;4.28;;;7.00;99.90;;;;;;5044260;28;20218;-77
2023/04/01 04:43:54;;;;;;;5.07;4.70;;;7.00;99.90;;;;;;5043099;28;20198;-77
2023/04/01 04:46:22;;;;;;;5.07;4.68;;;7.00;99.90;;;;;;5038000;28;20704;-78
2023/04/01 04:48:49;;;;;;;4.78;4.38;;;6.90;99.90;;;;;;5046227;28;20203;-77
2023/04/01 04:51:17;;;;;;;5.15;4.75;;;6.90;99.90;;;;;;5042249;28;20900;-80
2023/04/01 04:53:45;;;;;;;4.28;3.97;;;6.90;99.90;;;;;;5043893;28;20613;-77
2023/04/01 04:56:13;;;;;;;4.43;4.13;;;6.80;99.90;;;;;;5039490;28;20204;-77
2023/04/01 04:58:41;;;;;;;4.90;4.60;;;6.80;99.90;;;;;;5043587;28;20249;-80
2023/04/01 05:01:10;;;;;;;4.07;3.78;;;6.70;99.90;;;;;;5042230;28;21190;-79
2023/04/01 05:03:37;;;;;;;4.57;4.28;;;6.80;99.90;;;;;;5041921;28;20268;-79
2023/04/01 05:06:05;;;;;;;4.93;4.60;;;6.80;99.90;;;;;;5046762;28;20199;-78
2023/04/01 05:08:32;;;;;;;4.93;4.63;;;6.70;99.90;;;;;;5049188;28;20661;-77
2023/04/01 05:11:00;;;;;;;5.20;4.80;;;6.70;99.90;;;;;;5050212;28;20774;-77
2023/04/01 05:13:28;;;;;;;5.75;5.35;;;6.60;99.90;;;;;;5041520;28;20208;-77
2023/04/01 05:15:55;;;;;;;5.30;4.90;;;6.50;99.90;;;;;;5043375;28;20207;-77
2023/04/01 05:18:22;;;;;;;5.20;4.80;;;6.50;99.90;;;;;;5040800;28;20206;-76
2023/04/01 05:20:50;;;;;;;4.68;4.38;;;6.50;99.90;;;;;;5040633;28;20246;-77
2023/04/01 05:23:17;;;;;;;4.53;4.22;;;6.60;99.90;;;;;;5044506;28;20300;-77
2023/04/01 05:25:45;;;;;;;4.90;4.47;;;6.60;99.90;;;;;;5041666;28;20629;-76
2023/04/01 05:28:14;;;;;;;4.72;4.40;;;6.70;99.90;;;;;;5038145;28;20880;-77
2023/04/01 05:30:45;;;;;;;4.85;4.50;;;6.70;99.90;;;;;;5055347;28;20215;-80
2023/04/01 05:33:13;;;;;;;5.00;4.60;;;6.80;99.90;;;;;;5048267;28;20257;-77
2023/04/01 05:35:41;;;;;;;4.60;4.30;;;7.10;99.90;;;;;;5039133;28;20211;-78
2023/04/01 05:38:08;;;;;;;5.15;4.75;;;7.50;99.90;;;;;;5041389;28;20202;-75
2023/04/01 05:40:35;;;;;;;5.20;4.80;;;7.90;99.90;;;;;;5043825;28;20292;-79
2023/04/01 05:43:02;;;;;;;5.10;4.70;;;8.20;99.90;;;;;;5047471;28;20616;-77
2023/04/01 05:45:31;;;;;;;5.20;4.80;;;8.60;99.90;;;;;;5043856;28;20268;-79
2023/04/01 05:47:58;;;;;;;5.13;4.72;;;9.00;99.90;;;;;;5042669;28;20210;-77
2023/04/01 05:50:25;;;;;;;4.95;4.63;;;9.30;99.90;;;;;;5043167;28;20284;-78
2023/04/01 05:52:52;;;;;;;4.47;4.18;;;9.70;99.90;;;;;;5039605;28;20252;-77
2023/04/01 05:55:19;;;;;;;4.32;4.03;;;10.00;99.90;;;;;;5042580;28;20698;-76
2023/04/01 05:57:48;;;;;;;4.75;4.45;;;10.20;99.90;;;;;;5043531;28;20203;-79
2023/04/01 06:00:16;;;;;;;4.18;3.88;;;10.50;99.90;;;;;;5040803;28;20788;-77
2023/04/01 06:02:46;;;;;;;4.20;3.90;;;10.70;99.90;;;;;;5041234;28;20675;-77
2023/04/01 06:05:17;;;;;;;4.30;4.00;;;11.00;99.90;;;;;;5041824;28;20206;-75
2023/04/01 06:07:44;;;;;;;5.18;4.78;;;11.20;99.90;;;;;;5040447;28;20241;-77
2023/04/01 06:10:15;;;;;;;4.82;4.20;;;11.30;99.90;;;;;;5041098;28;20254;-78
2023/04/01 06:12:50;;;;;;;4.63;4.32;;;11.40;99.90;;;;;;5040828;28;20249;-77
2023/04/01 06:15:24;;;;;;;4.22;3.92;;;11.60;99.90;;;;;;5037987;28;20283;-77
2023/04/01 06:18:26;;;;;;;4.43;4.03;;;11.80;99.90;;;;;;5042175;28;20207;-77
2023/04/01 06:21:03;;;;;;;4.78;4.40;;;12.10;99.90;;;;;;5032227;28;20215;-77
2023/04/01 06:23:41;;;;;;;4.45;4.15;;;12.20;99.90;;;;;;5035962;28;20198;-77
2023/04/01 06:26:20;;;;;;;4.68;4.20;;;12.40;99.90;;;;;;5042531;28;20500;-77
2023/04/01 06:29:20;;;;;;;4.15;3.85;;;12.40;99.90;;;;;;5052257;28;20199;-77
2023/04/01 06:32:24;;;;;;;4.93;4.07;;;12.50;99.90;;;;;;5036894;28;20246;-80
2023/04/01 06:35:14;;;;;;;4.70;4.40;;;12.80;99.90;;;;;;5040232;28;20215;-77
2023/04/01 06:38:20;;;;;;;4.32;4.00;;;13.10;99.90;;;;;;5038604;28;20227;-78
2023/04/01 06:41:29;;;;;;;4.15;3.85;;;13.00;99.90;;;;;;5043535;28;20402;-77
2023/04/01 06:44:06;;;;;;;4.47;4.05;;;12.30;99.90;;;;;;4983600;28;20211;-77
2023/04/01 06:46:43;;;;;;;4.38;3.97;;;12.20;99.90;;;;;;5032951;28;20199;-77
2023/04/01 06:49:25;;;;;;;4.07;3.78;;;12.10;99.90;;;;;;5047389;28;20637;-77
2023/04/01 06:52:00;;;;;;;4.38;4.03;;;11.80;99.90;;;;;;5045608;28;20222;-78
2023/04/01 06:54:34;;;;;;;4.75;4.40;;;11.40;99.90;;;;;;5046262;28;20206;-77
2023/04/01 06:57:10;;;;;;;5.18;4.78;;;11.10;99.90;;;;;;5057368;28;20195;-75
2023/04/01 06:59:38;;;;;;;4.70;4.30;;;11.30;99.90;;;;;;5053312;28;20754;-79
2023/04/01 07:02:16;;;;;;;4.97;4.57;;;11.60;99.90;;;;;;5045702;28;20203;-78
2023/04/01 07:04:47;;;;;;;4.72;4.32;;;11.90;99.90;;;;;;5043983;28;20257;-77
2023/04/01 07:07:22;;;;;;;5.97;5.30;;;12.00;99.90;;;;;;5047682;28;20888;-77
2023/04/01 07:09:53;;;;;;;5.00;4.60;;;12.20;99.90;;;;;;5044700;28;20232;-77
2023/04/01 07:12:38;;;;;;;11.63;4.57;;;12.40;99.90;;;;;;5044873;28;20238;-77
2023/04/01 07:15:16;;;;;;;6.20;4.70;;;12.90;99.90;;;;;;5041943;28;20837;-79
2023/04/01 07:17:45;;;;;;;5.35;4.93;;;13.00;99.90;;;;;;5045748;28;20624;-77
2023/04/01 07:20:20;;;;;;;5.07;4.68;;;12.70;99.90;;;;;;5049238;28;20254;-79
2023/04/01 07:22:50;;;;;;;5.40;4.90;;;12.50;99.90;;;;;;5044686;28;20269;-79
2023/04/01 07:25:21;;;;;;;5.03;4.57;;;12.80;99.90;;;;;;5046603;28;20263;-78
2023/04/01 07:27:49;;;;;;;5.70;5.20;;;13.00;99.90;;;;;;5057343;28;20211;-78
2023/04/01 07:30:18;;;;;;;5.32;4.88;;;12.80;99.90;;;;;;5044224;28;20211;-79
2023/04/01 07:32:51;;;;;;;4.82;4.47;;;12.60;99.90;;;;;;5044925;28;20206;-79
2023/04/01 07:35:26;;;;;;;4.78;4.38;;;12.50;99.90;;;;;;5043281;28;20207;-79
2023/04/01 07:38:13;;;;;;;5.28;4.78;;;12.60;99.90;;;;;;5044236;28;20214;-80
2023/04/01 07:40:48;;;;;;;4.72;4.10;;;13.00;99.90;;;;;;5039811;28;20273;-79
2023/04/01 07:43:33;;;;;;;4.60;4.30;;;13.10;99.90;;;;;;5042098;28;20251;-79
2023/04/01 07:46:10;;;;;;;4.60;4.28;;;12.90;99.90;;;;;;5042381;28;20187;-79
2023/04/01 07:48:45;;;;;;;4.70;4.30;;;12.60;99.90;;;;;;5043795;28;20230;-78
2023/04/01 07:51:18;;;;;;;4.65;4.35;;;12.20;99.90;;;;;;5038327;28;20253;-78
2023/04/01 07:53:51;;;;;;;4.05;3.75;;;12.00;99.90;;;;;;5040676;28;20234;-78
2023/04/01 07:56:26;;;;;;;4.82;4.53;;;11.80;99.90;;;;;;5042194;28;20997;-79
2023/04/01 07:59:04;;;;;;;4.80;4.50;;;11.50;99.90;;;;;;5038550;28;20194;-80
2023/04/01 08:01:38;;;;;;;4.70;4.30;;;11.20;99.90;;;;;;5036204;28;20356;-80
2023/04/01 08:04:19;;;;;;;5.35;4.95;;;11.10;99.90;;;;;;5034589;28;20211;-80
2023/04/01 08:06:52;;;;;;;4.63;4.32;;;11.10;99.90;;;;;;5034642;28;20271;-78
2023/04/01 08:09:29;;;;;;;4.05;3.75;;;11.00;99.90;;;;;;5037492;28;20270;-80
2023/04/01 08:12:11;;;;;;;4.70;4.30;;;11.00;99.90;;;;;;5039333;28;20218;-80
2023/04/01 08:14:49;;;;;;;4.63;4.32;;;11.20;99.90;;;;;;5038770;28;20294;-79
2023/04/01 08:17:25;;;;;;;4.00;3.70;;;11.50;99.90;;;;;;5037004;28;20191;-78
2023/04/01 08:20:04;;;;;;;4.68;4.30;;;11.80;99.90;;;;;;5041039;28;20198;-76
2023/04/01 08:22:36;;;;;;;4.75;4.35;;;12.00;99.90;;;;;;5037642;28;20191;-76
2023/04/01 08:25:07;;;;;;;6.65;4.70;;;12.30;99.90;;;;;;5054995;28;20217;-79
2023/04/01 08:27:40;;;;;;;4.95;4.55;;;12.50;99.90;;;;;;5042954;28;20207;-79
2023/04/01 08:30:18;;;;;;;5.32;4.93;;;12.80;99.90;;;;;;5035205;28;20246;-81
2023/04/01 08:32:52;;;;;;;4.70;4.30;;;13.00;99.90;;;;;;5037015;28;20222;-80
2023/04/01 08:35:26;;;;;;;5.18;4.45;;;13.10;99.90;;;;;;5038106;28;20195;-79
2023/04/01 08:37:56;;;;;;;5.03;4.55;;;13.50;99.90;;;;;;5035528;28;20602;-79
2023/04/01 08:40:49;;;;;;;5.80;5.30;;;13.90;99.90;;;;;;5033394;28;20214;-76
2023/04/01 08:43:32;;;;;;;5.45;4.95;;;14.30;99.90;;;;;;5033018;28;20198;-76
2023/04/01 08:46:17;;;;;;;4.85;4.43;;;14.50;99.90;;;;;;5035754;28;20236;-77
2023/04/01 08:48:58;;;;;;;4.95;4.50;;;14.60;99.90;;;;;;5039787;28;20300;-75
2023/04/01 08:51:56;;;;;;;4.97;4.57;;;14.70;99.90;;;;;;5033920;28;20289;-74
2023/04/01 08:54:46;;;;;;;4.45;4.05;;;14.70;99.90;;;;;;5032820;28;20287;-75
2023/04/01 08:57:21;;;;;;;4.75;4.35;;;14.90;99.90;;;;;;5033068;28;20191;-74
2023/04/01 09:00:11;;;;;;;4.80;4.40;;;14.90;99.90;;;;;;5032208;28;20199;-75
2023/04/01 09:03:13;;;;;;;3.70;3.40;;;15.30;99.90;;;;;;5034638;28;20199;-75
2023/04/01 09:06:07;;;;;;;3.88;3.58;;;15.30;99.90;;;;;;5020547;28;20199;-73
2023/04/01 09:08:49;;;;;;;4.30;4.00;;;15.40;99.90;;;;;;5038438;28;20234;-74
2023/04/01 09:11:29;;;;;;;4.50;4.10;;;15.60;99.90;;;;;;5035467;28;20246;-74
2023/04/01 09:14:13;;;;;;;4.45;4.15;;;15.80;99.90;;;;;;5034328;28;20195;-74
2023/04/01 09:17:16;;;;;;;4.57;4.20;;;15.40;99.90;;;;;;5031589;28;20226;-73
2023/04/01 09:20:03;;;;;;;4.25;3.95;;;15.40;99.90;;;;;;4998287;28;20933;-74
2023/04/01 09:22:59;;;;;;;3.45;3.25;;;15.70;99.90;;;;;;5038374;28;20246;-72
2023/04/01 09:25:35;;;;;;;3.63;3.10;;;15.80;99.90;;;;;;5042667;28;20215;-74
2023/04/01 09:28:11;;;;;;;4.35;3.58;;;15.90;99.90;;;;;;5032250;28;20313;-74
2023/04/01 09:31:05;;;;;;;4.15;3.85;;;15.80;99.90;;;;;;5035500;28;20276;-74
2023/04/01 09:34:03;;;;;;;3.75;3.35;;;15.90;99.90;;;;;;5036430;28;20844;-73
2023/04/01 09:36:44;;;;;;;3.67;3.38;;;16.10;99.90;;;;;;5035046;28;20194;-73
2023/04/01 09:39:36;;;;;;;3.67;3.38;;;16.40;99.90;;;;;;5035692;28;20202;-73
2023/04/01 09:42:34;;;;;;;3.80;3.50;;;16.70;99.90;;;;;;5033926;28;20203;-73
2023/04/01 09:45:08;;;;;;;3.45;3.15;;;16.80;99.90;;;;;;5013681;28;20277;-75
2023/04/01 09:47:51;;;;;;;3.80;3.50;;;16.70;99.90;;;;;;5029686;28;20882;-75
2023/04/01 09:50:32;;;;;;;4.03;3.72;;;16.90;99.90;;;;;;5033595;28;20258;-76
2023/04/01 09:53:12;;;;;;;3.97;3.67;;;17.00;99.90;;;;;;5030385;28;20290;-74
2023/04/01 09:56:03;;;;;;;3.92;3.60;;;17.00;99.90;;;;;;5030840;28;20191;-74
2023/04/01 09:58:59;;;;;;;3.35;3.15;;;16.80;99.90;;;;;;5033226;28;20200;-75
2023/04/01 10:01:53;;;;;;;3.30;3.00;;;16.50;99.90;;;;;;5022711;28;20215;-74
2023/04/01 10:05:04;;;;;;;3.15;2.92;;;16.70;99.90;;;;;;5033738;28;20222;-73
2023/04/01 10:07:57;;;;;;;2.83;2.63;;;17.10;99.90;;;;;;5021945;28;20262;-72
2023/04/01 10:10:59;;;;;;;2.58;2.38;;;17.40;99.90;;;;;;5029184;28;20303;-75
2023/04/01 10:13:54;;;;;;;2.20;2.05;;;17.40;99.90;;;;;;5032054;28;20252;-71
2023/04/01 10:17:15;;;;;;;2.97;2.78;;;17.30;99.90;;;;;;5033727;28;20252;-73
2023/04/01 10:20:02;;;;;;;2.60;2.40;;;16.80;99.90;;;;;;5047457;28;20183;-75
2023/04/01 10:23:05;;;;;;;2.90;2.70;;;17.00;99.90;;;;;;5055046;28;20612;-74
2023/04/01 10:26:23;;;;;;;4.53;3.20;;;17.60;99.90;;;;;;4977974;28;20637;-73
2023/04/01 10:29:19;;;;;;;3.63;3.35;;;18.10;99.90;;;;;;5023894;28;20327;-73
2023/04/01 10:32:23;;;;;;;4.15;3.42;;;17.90;99.90;;;;;;5014207;28;20273;-75
2023/04/01 10:35:35;;;;;;;3.55;3.25;;;17.00;99.90;;;;;;5031206;28;20285;-75
2023/04/01 10:38:35;;;;;;;4.85;3.53;;;16.50;99.90;;;;;;5000771;28;20891;-73
2023/04/01 10:41:32;;;;;;;3.60;3.30;;;16.90;99.90;;;;;;5034988;28;21340;-73
2023/04/01 10:44:28;;;;;;;3.67;3.38;;;17.40;99.90;;;;;;5036406;28;20195;-73
2023/04/01 10:47:40;;;;;;;3.10;2.80;;;18.00;99.90;;;;;;5029286;28;20202;-74
2023/04/01 10:50:25;;;;;;;3.53;2.67;;;18.50;99.90;;;;;;5037534;28;20215;-75
2023/04/01 10:53:24;;;;;;;3.00;2.80;;;18.30;99.90;;;;;;5034057;28;20295;-74
2023/04/01 10:56:31;;;;;;;3.42;3.15;;;18.20;99.90;;;;;;5032547;28;20206;-74
2023/04/01 10:59:36;;;;;;;3.72;3.33;;;18.60;99.90;;;;;;5035524;28;20227;-74
2023/04/01 11:02:43;;;;;;;3.35;2.50;;;18.40;99.90;;;;;;5034784;28;20227;-75
2023/04/01 11:05:51;;;;;;;2.75;2.55;;;18.90;99.90;;;;;;5035897;28;20617;-74
2023/04/01 11:08:50;;;;;;;2.72;2.53;;;19.20;99.90;;;;;;5036696;28;20223;-74
2023/04/01 11:11:47;;;;;;;2.10;2.00;;;18.90;99.90;;;;;;5016522;28;20223;-76
2023/04/01 11:14:50;;;;;;;2.42;2.22;;;19.10;99.90;;;;;;5032930;28;20239;-75
2023/04/01 11:17:50;;;;;;;2.97;2.70;;;19.10;99.90;;;;;;5037524;28;20245;-75
2023/04/01 11:20:42;;;;;;;2.83;2.63;;;18.30;99.90;;;;;;5051747;28;20204;-74
2023/04/01 11:23:30;;;;;;;3.72;3.33;;;17.50;99.90;;;;;;5036845;28;20298;-74
2023/04/01 11:26:09;;;;;;;3.10;2.90;;;17.80;99.90;;;;;;5034346;28;20234;-74
2023/04/01 11:29:04;;;;;;;2.80;2.53;;;18.40;99.90;;;;;;5042376;28;20225;-75
2023/04/01 11:31:40;;;;;;;2.67;2.47;;;19.00;99.90;;;;;;5037515;28;20225;-75
2023/04/01 11:34:23;;;;;;;2.50;2.30;;;19.10;99.90;;;;;;5034533;28;20638;-74
2023/04/01 11:37:01;;;;;;;2.65;2.45;;;18.80;99.90;;;;;;5038553;28;20227;-74
2023/04/01 11:39:35;;;;;;;2.10;2.00;;;19.00;99.90;;;;;;5035574;28;20509;-74
2023/04/01 11:42:12;;;;;;;1.92;1.83;;;19.30;99.90;;;;;;5037498;28;20805;-74
2023/04/01 11:44:47;;;;;;;2.10;1.90;;;19.20;99.90;;;;;;5037328;28;20311;-74
2023/04/01 11:47:29;;;;;;;2.05;1.95;;;18.70;99.90;;;;;;5038736;28;20286;-76
2023/04/01 11:50:15;;;;;;;2.03;1.92;;;18.10;99.90;;;;;;5039306;28;20660;-76
2023/04/01 11:53:05;;;;;;;1.73;1.63;;;18.30;99.90;;;;;;5038017;28;20230;-75
2023/04/01 11:55:44;;;;;;;2.00;1.90;;;18.90;99.90;;;;;;5041198;28;20191;-75
2023/04/01 11:58:32;;;;;;;2.28;2.08;;;19.60;99.90;;;;;;5040716;28;20199;-75
2023/04/01 12:01:09;;;;;;;2.30;2.10;;;19.30;99.90;;;;;;5038714;28;20218;-76
2023/04/01 12:04:11;;;;;;;2.10;1.90;;;19.30;99.90;;;;;;5039734;28;20211;-74
2023/04/01 12:06:49;;;;;;;1.70;1.60;;;19.60;99.90;;;;;;5031641;28;20202;-76
2023/04/01 12:09:25;;;;;;;1.70;1.60;;;19.50;99.90;;;;;;5039365;28;20798;-75
2023/04/01 12:12:12;;;;;;;1.67;1.58;;;19.20;99.90;;;;;;5040931;28;20206;-75
2023/04/01 12:14:44;;;;;;;1.60;1.50;;;19.10;99.90;;;;;;5044081;28;20229;-74
2023/04/01 12:17:26;;;;;;;1.20;1.20;;;18.80;99.90;;;;;;5043716;28;20282;-74
2023/04/01 12:20:02;;;;;;;1.30;1.17;;;18.50;99.90;;;;;;5055034;28;20289;-74
2023/04/01 12:22:44;;;;;;;1.42;1.33;;;18.40;99.90;;;;;;5042627;28;20749;-76
2023/04/01 12:25:38;;;;;;;1.40;1.30;;;18.50;99.90;;;;;;5039130;28;20640;-76
2023/04/01 12:28:16;;;;;;;1.98;1.75;;;18.50;99.90;;;;;;5041110;28;20245;-75
2023/04/01 12:30:54;;;;;;;1.20;1.20;;;18.40;99.90;;;;;;5043489;28;20622;-73
2023/04/01 12:33:56;;;;;;;1.45;1.35;;;18.30;99.90;;;;;;5044295;28;20623;-74
2023/04/01 12:36:46;;;;;;;1.40;1.30;;;18.50;99.90;;;;;;5036236;28;20626;-75
2023/04/01 12:39:28;;;;;;;1.20;1.20;;;18.50;99.90;;;;;;5039636;28;20230;-75
2023/04/01 12:42:08;;;;;;;1.30;1.20;;;18.50;99.90;;;;;;5038773;28;20218;-75
2023/04/01 12:44:50;;;;;;;1.20;1.20;;;18.40;99.90;;;;;;5037822;28;20222;-75
2023/04/01 12:48:01;;;;;;;1.63;1.52;;;18.30;99.90;;;;;;5039149;28;20707;-75
2023/04/01 12:50:46;;;;;;;1.20;1.10;;;18.10;99.90;;;;;;5039698;28;20223;-74
2023/04/01 12:53:39;;;;;;;1.63;1.40;;;18.30;99.90;;;;;;5039994;28;20256;-75
2023/04/01 12:56:14;;;;;;;1.50;1.40;;;19.10;99.90;;;;;;5040292;28;20203;-74
2023/04/01 12:59:11;;;;;;;2.40;1.20;;;19.70;99.90;;;;;;5037068;28;20285;-75
2023/04/01 13:02:05;;;;;;;1.30;1.23;;;20.20;99.90;;;;;;5040959;28;20251;-75
2023/04/01 13:05:16;;;;;;;1.00;1.00;;;20.10;99.90;;;;;;5031693;28;20294;-74
2023/04/01 13:08:01;;;;;;;1.10;1.10;;;19.40;99.90;;;;;;4994926;28;20203;-75
2023/04/01 13:10:52;;;;;;;1.15;1.10;;;19.20;99.90;;;;;;5033523;28;20246;-74
2023/04/01 13:13:48;;;;;;;0.95;0.95;;;18.80;99.90;;;;;;5034098;28;20203;-73
2023/04/01 13:16:21;;;;;;;1.13;1.02;;;18.60;99.90;;;;;;5036188;28;20249;-73
2023/04/01 13:18:58;;;;;;;1.00;1.00;;;18.50;99.90;;;;;;5055118;28;20248;-75
2023/04/01 13:21:40;;;;;;;1.13;1.13;;;18.70;99.90;;;;;;5036860;28;20229;-74
2023/04/01 13:24:20;;;;;;;1.00;1.00;;;18.80;99.90;;;;;;5038279;28;20225;-75
2023/04/01 13:26:57;;;;;;;1.30;1.20;;;18.80;99.90;;;;;;5034992;28;20632;-73
2023/04/01 13:29:28;;;;;;;1.00;1.00;;;18.80;99.90;;;;;;5038165;28;20214;-73
2023/04/01 13:32:14;;;;;;;1.05;1.05;;;18.50;99.90;;;;;;5038716;28;20764;-75
2023/04/01 13:34:53;;;;;;;0.90;0.90;;;18.40;99.90;;;;;;5039582;28;20256;-75
2023/04/01 13:37:32;;;;;;;1.00;1.00;;;18.30;99.90;;;;;;5037783;28;20765;-73
2023/04/01 13:40:25;;;;;;;1.15;1.15;;;18.10;99.90;;;;;;5031338;28;20245;-73
2023/04/01 13:42:57;;;;;;;1.40;1.30;;;18.10;99.90;;;;;;5037015;28;20195;-75
2023/04/01 13:45:30;;;;;;;1.10;1.10;;;18.20;99.90;;;;;;5037270;28;20234;-74